ADDS METAR Data INFO
IDs: Format: Raw Decoded Include TAF

Data at: 1317 UTC 19 Jul 2018

KGLW 191250Z AUTO 09006KT 10SM CLR 22/17 A3001 RMK AO2 T02220174
KGLW 191230Z AUTO 08004KT 10SM CLR 22/18 A3001 RMK AO2 T02160177
KGLW 191210Z AUTO 06004KT 10SM CLR 21/17 A3001 RMK AO2 T02050171
KGLW 191150Z AUTO 00000KT 10SM CLR 20/17 A3001 RMK AO2 T01960170 10196 20170
KGLW 191130Z AUTO 00000KT 10SM CLR 18/17 A3000 RMK AO2 T01820165
KGLW 191115Z AUTO 00000KT 10SM CLR 17/16 A3000 RMK AO2 T01720159
KGLW 191050Z AUTO 00000KT 10SM CLR 17/16 A3000 RMK AO2 T01710158
KGLW 191030Z AUTO 00000KT 10SM CLR 17/16 A2999 RMK AO2 T01700157
KGLW 191010Z AUTO 00000KT 10SM CLR 17/16 A2999 RMK AO2 T01730159
KGLW 190950Z AUTO 00000KT 10SM CLR 17/16 A2999 RMK AO2 T01710157
KGLW 190930Z AUTO 00000KT 10SM CLR 17/16 A2998 RMK AO2 T01720157
KGLW 190910Z AUTO 00000KT 10SM CLR 17/16 A2998 RMK AO2 T01730157
KGLW 190850Z AUTO 00000KT 10SM CLR 18/16 A2998 RMK AO2 T01750160
KGLW 190830Z AUTO 00000KT 10SM CLR 17/16 A2998 RMK AO2 T01740159
KGLW 190810Z AUTO 00000KT 10SM CLR 18/16 A2998 RMK AO2 T01770160
KGLW 190750Z AUTO 00000KT 10SM CLR 18/16 A2998 RMK AO2 T01780162
KGLW 190730Z AUTO 00000KT 10SM CLR 18/16 A2998 RMK AO2 T01760159
KGLW 190710Z AUTO 00000KT 10SM CLR 18/16 A2998 RMK AO2 T01800161
KGLW 190650Z AUTO 00000KT 10SM CLR 18/16 A2999 RMK AO2 T01770160
KGLW 190630Z AUTO 00000KT 10SM CLR 18/16 A2999 RMK AO2 T01840160
KGLW 190610Z AUTO 08003KT 10SM CLR 18/16 A3000 RMK AO2 T01810162
KGLW 190550Z AUTO 00000KT 10SM CLR 18/16 A3000 RMK AO2 T01790159 10279 20179
KGLW 190530Z AUTO 00000KT 10SM CLR 19/16 A3000 RMK AO2 T01850162
KGLW 190510Z AUTO 00000KT 10SM CLR 19/17 A3001 RMK AO2 T01860165
KGLW 190450Z AUTO 00000KT 10SM CLR 19/17 A3001 RMK AO2 T01870165
KGLW 190430Z AUTO 00000KT 10SM CLR 19/17 A3001 RMK AO2 T01930165
KGLW 190410Z AUTO 00000KT 10SM CLR 19/17 A3001 RMK AO2 T01880166
KGLW 190350Z AUTO 00000KT 10SM CLR 19/17 A3001 RMK AO2 T01880165 403150188
KGLW 190335Z AUTO 00000KT 10SM CLR 20/17 A3001 RMK AO2 T01980165
KGLW 190310Z AUTO 00000KT 10SM CLR 21/17 A3001 RMK AO2 T02050167
KGLW 190250Z AUTO 00000KT 10SM CLR 21/17 A3000 RMK AO2 T02060168
KGLW 190230Z AUTO 00000KT 10SM CLR 21/17 A3000 RMK AO2 T02070169
KGLW 190210Z AUTO 00000KT 10SM CLR 23/16 A2999 RMK AO2 T02280161
KGLW 190150Z AUTO 00000KT 10SM CLR 23/16 A2998 RMK AO2 T02300162
KGLW 190130Z AUTO 00000KT 10SM CLR 24/16 A2998 RMK AO2 T02400160
KGLW 190110Z AUTO 00000KT 10SM CLR 24/16 A2998 RMK AO2 T02420161
KGLW 190050Z AUTO 00000KT 10SM CLR 25/16 A2998 RMK AO2 T02450163
KGLW 190030Z AUTO 00000KT 10SM CLR 26/16 A2998 RMK AO2 T02600161
KGLW 190010Z AUTO 04004KT 10SM CLR 27/16 A2998 RMK AO2 T02720161
KGLW 182350Z AUTO 00000KT 10SM CLR 28/16 A2998 RMK AO2 T02790158 10315 20276
KGLW 182330Z AUTO 00000KT 10SM CLR 28/15 A2998 RMK AO2 T02820152
KGLW 182310Z AUTO 01004KT 10SM CLR 30/15 A2998 RMK AO2 T02950146
KGLW 182250Z AUTO 03004KT 10SM CLR 30/15 A2998 RMK AO2 T02980149
KGLW 182230Z AUTO 35006KT 10SM CLR 30/15 A2998 RMK AO2 T03000152
KGLW 182210Z AUTO 02004KT 10SM CLR 30/16 A2998 RMK AO2 T03020156
KGLW 182150Z AUTO 01007KT 10SM CLR 31/16 A2998 RMK AO2 T03100160
KGLW 182130Z AUTO 35004KT 10SM CLR 31/15 A2998 RMK AO2 T03070148
KGLW 182110Z AUTO 36006KT 10SM CLR 31/15 A2999 RMK AO2 T03100152
KGLW 182050Z AUTO 34003KT 10SM SCT060 31/16 A2999 RMK AO2 T03110155
KGLW 182030Z AUTO 00000KT 10SM SCT060 31/15 A3000 RMK AO2 T03110145
KGLW 182010Z AUTO 36003KT 10SM CLR 31/15 A3001 RMK AO2 T03120150
KGLW 181950Z AUTO 36003KT 10SM CLR 31/15 A3002 RMK AO2 T03080151
KGLW 181930Z AUTO 28003KT 10SM SCT050 30/15 A3002 RMK AO2 T03030154
KGLW 181910Z AUTO 04005KT 10SM CLR 31/17 A3003 RMK AO2 T03060167
KGLW 181850Z AUTO 35006KT 10SM CLR 30/15 A3003 RMK AO2 T03030147
KGLW 181830Z AUTO 07005KT 10SM CLR 30/16 A3004 RMK AO2 T03040160
KGLW 181810Z AUTO 02005KT 10SM CLR 30/16 A3004 RMK AO2 T03010157
KGLW 181750Z AUTO 35007KT 10SM CLR 30/17 A3004 RMK AO2 T03000165 10303 20215
KGLW 181730Z AUTO 34006KT 10SM CLR 30/16 A3004 RMK AO2 T02990155
KGLW 181710Z AUTO 02005KT 10SM CLR 30/17 A3004 RMK AO2 T03010165
KGLW 181650Z AUTO 06005KT 10SM CLR 30/17 A3004 RMK AO2 T03010174
KGLW 181630Z AUTO 01007KT 10SM CLR 30/17 A3005 RMK AO2 T02950170
KGLW 181610Z AUTO 06005KT 10SM CLR 29/17 A3005 RMK AO2 T02900168
KGLW 181550Z AUTO 06005KT 10SM CLR 29/17 A3006 RMK AO2 T02860171
KGLW 181530Z AUTO 05004KT 10SM CLR 28/17 A3006 RMK AO2 T02830173
KGLW 181510Z AUTO 05005KT 10SM CLR 28/17 A3007 RMK AO2 T02790174
KGLW 181450Z AUTO 05006KT 10SM CLR 27/17 A3007 RMK AO2 T02690170
KGLW 181430Z AUTO 06005KT 10SM CLR 26/17 A3006 RMK AO2 T02620172
KGLW 181410Z AUTO 04005KT 10SM CLR 26/17 A3007 RMK AO2 T02580172
KGLW 181350Z AUTO 08007KT 10SM CLR 25/17 A3007 RMK AO2 T02510171
KGLW 181330Z AUTO 07005KT 10SM CLR 25/17 A3007 RMK AO2 T02470174
KGLW 181310Z AUTO 04006KT 10SM CLR 24/17 A3007 RMK AO2 T02360170
KGLW 181250Z AUTO 06005KT 10SM CLR 23/17 A3007 RMK AO2 T02260167
KGLW 181230Z AUTO 00000KT 10SM CLR 23/17 A3006 RMK AO2 T02260166
KGLW 181210Z AUTO 05005KT 10SM CLR 22/16 A3006 RMK AO2 T02190163
KGLW 181150Z AUTO 06003KT 10SM CLR 21/16 A3005 RMK AO2 T02110164 10211 20189
KGLW 181130Z AUTO 07003KT 10SM CLR 21/16 A3005 RMK AO2 T02050159
KGLW 181110Z AUTO 05003KT 10SM CLR 20/15 A3004 RMK AO2 T02030153
KGLW 181050Z AUTO 00000KT 10SM CLR 20/16 A3004 RMK AO2 T01970155
KGLW 181030Z AUTO 05004KT 10SM CLR 20/16 A3003 RMK AO2 T01960155
KGLW 181010Z AUTO 05004KT 10SM CLR 20/16 A3003 RMK AO2 T02000155
KGLW 180950Z AUTO 05003KT 10SM CLR 19/16 A3002 RMK AO2 T01930156
KGLW 180930Z AUTO 06003KT 10SM CLR 19/16 A3002 RMK AO2 T01940159
KGLW 180910Z AUTO 04003KT 10SM CLR 20/16 A3002 RMK AO2 T02010157
KGLW 180850Z AUTO 00000KT 10SM CLR 21/16 A3002 RMK AO2 T02050160
KGLW 180830Z AUTO 05003KT 10SM CLR 20/16 A3002 RMK AO2 T01950164
KGLW 180810Z AUTO 05003KT 10SM CLR 19/17 A3002 RMK AO2 T01900170
KGLW 180750Z AUTO 07003KT 10SM CLR 19/17 A3002 RMK AO2 T01910170
KGLW 180730Z AUTO 00000KT 10SM CLR 19/17 A3002 RMK AO2 T01910172
KGLW 180710Z AUTO 00000KT 10SM CLR 19/18 A3002 RMK AO2 T01910175
KGLW 180650Z AUTO 00000KT 10SM CLR 19/17 A3002 RMK AO2 T01900174
KGLW 180630Z AUTO 00000KT 10SM CLR 19/18 A3002 RMK AO2 T01920176
KGLW 180610Z AUTO 00000KT 10SM CLR 20/18 A3003 RMK AO2 T01960180
KGLW 180550Z AUTO 00000KT 10SM CLR 20/18 A3003 RMK AO2 T01960182 10283 20195
KGLW 180530Z AUTO 00000KT 10SM CLR 20/18 A3004 RMK AO2 T01970181
KGLW 180510Z AUTO 00000KT 10SM CLR 20/18 A3003 RMK AO2 T01980180
KGLW 180450Z AUTO 00000KT 10SM CLR 20/18 A3004 RMK AO2 T02010182
KGLW 180430Z AUTO 00000KT 10SM CLR 21/18 A3004 RMK AO2 T02050184
KGLW 180410Z AUTO 09003KT 10SM CLR 21/18 A3003 RMK AO2 T02060183
KGLW 180350Z AUTO 00000KT 10SM CLR 21/18 A3003 RMK AO2 T02070178 403330207
KGLW 180330Z AUTO 00000KT 10SM CLR 22/18 A3003 RMK AO2 T02210179
KGLW 180310Z AUTO 00000KT 10SM CLR 23/18 A3003 RMK AO2 T02270177
KGLW 180250Z AUTO 00000KT 10SM CLR 23/18 A3003 RMK AO2 T02320178
KGLW 180230Z AUTO 00000KT 10SM CLR 24/18 A3003 RMK AO2 T02380179
KGLW 180210Z AUTO 01003KT 10SM CLR 24/18 A3002 RMK AO2 T02350181
KGLW 180150Z AUTO 00000KT 10SM CLR 25/18 A3001 RMK AO2 T02450182
KGLW 180130Z AUTO 01003KT 10SM CLR 25/18 A3001 RMK AO2 T02520184